createdAt,value
2017-12-22T00:00:10.683Z,92.56
2017-12-22T00:01:10.684Z,91.32
2017-12-22T00:02:10.682Z,91.22
2017-12-22T00:03:10.673Z,91.18
2017-12-22T00:04:10.678Z,91.61
2017-12-22T00:05:10.667Z,91.99
2017-12-22T00:06:10.667Z,91.32
2017-12-22T00:07:10.668Z,91.70
2017-12-22T00:08:10.652Z,91.51
2017-12-22T00:09:10.651Z,91.66
2017-12-22T00:10:10.645Z,91.28
2017-12-22T00:11:10.641Z,91.47
2017-12-22T00:12:10.636Z,91.66
2017-12-22T00:13:10.636Z,91.56
2017-12-22T00:14:10.628Z,91.66
2017-12-22T00:15:10.651Z,91.56
2017-12-22T00:16:10.618Z,91.56
2017-12-22T00:17:10.617Z,91.42
2017-12-22T00:18:10.614Z,91.37
2017-12-22T00:19:10.673Z,91.47
2017-12-22T00:20:10.607Z,91.51
2017-12-22T00:21:10.602Z,91.51
2017-12-22T00:22:10.599Z,91.70
2017-12-22T00:23:10.593Z,91.13
2017-12-22T00:24:10.781Z,91.13
2017-12-22T00:25:10.584Z,91.13
2017-12-22T00:26:10.581Z,91.32
2017-12-22T00:27:10.579Z,91.32
2017-12-22T00:28:10.574Z,90.94
2017-12-22T00:29:10.571Z,91.03
2017-12-22T00:30:10.596Z,90.75
2017-12-22T00:31:10.562Z,90.52
2017-12-22T00:32:10.559Z,90.37
2017-12-22T00:33:10.554Z,90.89
2017-12-22T00:34:10.569Z,91.08
2017-12-22T00:35:10.544Z,91.37
2017-12-22T00:36:10.542Z,91.47
2017-12-22T00:37:10.543Z,91.28
2017-12-22T00:38:10.532Z,91.47
2017-12-22T00:39:10.544Z,91.08
2017-12-22T00:40:10.528Z,91.37
2017-12-22T00:41:10.527Z,91.37
2017-12-22T00:42:10.523Z,91.66
2017-12-22T00:43:10.513Z,91.66
2017-12-22T00:44:10.509Z,91.37
2017-12-22T00:45:10.528Z,91.28
2017-12-22T00:46:10.501Z,91.66
2017-12-22T00:47:10.498Z,91.08
2017-12-22T00:48:10.495Z,90.52
2017-12-22T00:49:10.490Z,91.37
2017-12-22T00:50:10.487Z,91.47
2017-12-22T00:51:10.487Z,91.47
2017-12-22T00:52:10.480Z,91.08
2017-12-22T00:53:10.475Z,90.80
2017-12-22T00:54:10.540Z,91.37
2017-12-22T00:55:10.467Z,90.70
2017-12-22T00:56:10.461Z,90.80
2017-12-22T00:57:10.464Z,90.80
2017-12-22T00:58:10.456Z,90.99
2017-12-22T00:59:10.449Z,91.28
2017-12-22T01:00:10.447Z,91.47
2017-12-22T01:01:10.463Z,91.37
2017-12-22T01:02:10.436Z,91.18
2017-12-22T01:03:10.433Z,91.28
2017-12-22T01:04:10.430Z,91.28
2017-12-22T01:05:10.425Z,91.47
2017-12-22T01:06:10.422Z,92.22
2017-12-22T01:07:10.426Z,92.13
2017-12-22T01:08:10.415Z,92.03
2017-12-22T01:09:10.410Z,91.85
2017-12-22T01:10:10.404Z,92.32
2017-12-22T01:11:10.411Z,92.61
2017-12-22T01:12:10.398Z,92.41
2017-12-22T01:13:10.404Z,92.13
2017-12-22T01:14:10.389Z,92.13
2017-12-22T01:15:10.386Z,92.13
2017-12-22T01:16:10.386Z,92.22
2017-12-22T01:17:10.378Z,92.03
2017-12-22T01:18:10.373Z,91.94
2017-12-22T01:19:10.369Z,92.80
2017-12-22T01:20:10.368Z,92.41
2017-12-22T01:21:10.362Z,92.13
2017-12-22T01:22:10.357Z,91.37
2017-12-22T01:23:10.356Z,92.03
2017-12-22T01:24:10.351Z,92.03
2017-12-22T01:25:10.345Z,92.03
2017-12-22T01:26:10.341Z,91.85
2017-12-22T01:27:10.335Z,92.51
2017-12-22T01:28:10.332Z,91.85
2017-12-22T01:29:10.329Z,92.32
2017-12-22T01:30:10.326Z,92.51
2017-12-22T01:31:10.322Z,91.94
2017-12-22T01:32:10.319Z,92.13
2017-12-22T01:33:10.314Z,92.13
2017-12-22T01:34:10.310Z,92.13
2017-12-22T01:35:10.307Z,92.13
2017-12-22T01:36:10.300Z,92.22
2017-12-22T01:37:10.422Z,91.75
2017-12-22T01:38:10.292Z,92.03
2017-12-22T01:39:10.309Z,92.51
2017-12-22T01:40:10.284Z,92.13
2017-12-22T01:41:10.278Z,91.85
2017-12-22T01:42:10.275Z,92.13
2017-12-22T01:43:10.271Z,91.85
2017-12-22T01:44:10.268Z,92.03
2017-12-22T01:45:10.263Z,92.22
2017-12-22T01:46:10.259Z,92.22
2017-12-22T01:47:10.256Z,91.94
2017-12-22T01:48:10.253Z,91.94
2017-12-22T01:49:10.246Z,91.85
2017-12-22T01:50:10.241Z,92.22
2017-12-22T01:51:10.241Z,92.32
2017-12-22T01:52:10.233Z,91.85
2017-12-22T01:53:10.232Z,91.47
2017-12-22T01:54:10.223Z,92.03
2017-12-22T01:55:10.226Z,92.03
2017-12-22T01:56:10.217Z,92.22
2017-12-22T01:57:10.215Z,92.22
2017-12-22T01:58:10.210Z,92.03
2017-12-22T01:59:10.205Z,92.22
2017-12-22T02:00:10.201Z,91.94
2017-12-22T02:01:10.195Z,92.13
2017-12-22T02:02:10.190Z,91.56
2017-12-22T02:03:10.188Z,91.18
2017-12-22T02:04:10.185Z,91.18
2017-12-22T02:05:10.180Z,91.56
2017-12-22T02:06:10.174Z,91.94
2017-12-22T02:07:10.170Z,92.03
2017-12-22T02:08:10.169Z,91.47
2017-12-22T02:09:10.164Z,91.28
2017-12-22T02:10:10.162Z,91.56
2017-12-22T02:11:10.220Z,91.85
2017-12-22T02:12:10.153Z,91.75
2017-12-22T02:13:10.149Z,91.37
2017-12-22T02:14:10.141Z,91.47
2017-12-22T02:15:10.139Z,91.28
2017-12-22T02:16:10.136Z,91.47
2017-12-22T02:17:10.129Z,91.28
2017-12-22T02:18:10.126Z,91.56
2017-12-22T02:19:10.123Z,91.75
2017-12-22T02:20:10.119Z,91.37
2017-12-22T02:21:10.112Z,91.47
2017-12-22T02:22:10.173Z,91.85
2017-12-22T02:23:10.169Z,91.28
2017-12-22T02:24:11.131Z,91.47
2017-12-22T02:25:10.439Z,91.28
2017-12-22T02:26:10.261Z,91.47
2017-12-22T02:27:10.088Z,91.75
2017-12-22T02:28:10.085Z,91.75
2017-12-22T02:29:10.081Z,91.47
2017-12-22T02:30:10.074Z,91.47
2017-12-22T02:31:10.071Z,91.66
2017-12-22T02:32:10.066Z,91.85
2017-12-22T02:33:10.065Z,91.18
2017-12-22T02:34:10.060Z,91.47
2017-12-22T02:35:10.059Z,91.37
2017-12-22T02:36:10.091Z,91.66
2017-12-22T02:37:10.043Z,91.66
2017-12-22T02:38:10.038Z,91.47
2017-12-22T02:39:10.043Z,91.66
2017-12-22T02:40:10.032Z,91.37
2017-12-22T02:41:10.038Z,91.75
2017-12-22T02:42:10.024Z,91.47
2017-12-22T02:43:10.474Z,91.66
2017-12-22T02:44:10.013Z,91.18
2017-12-22T02:45:10.055Z,91.37
2017-12-22T02:46:10.006Z,91.75
2017-12-22T02:47:10.004Z,91.42
2017-12-22T02:48:09.996Z,91.28
2017-12-22T02:49:09.990Z,91.23
2017-12-22T02:50:10.012Z,91.23
2017-12-22T02:51:09.983Z,92.37
2017-12-22T02:52:09.981Z,91.42
2017-12-22T02:53:09.973Z,92.18
2017-12-22T02:54:09.972Z,91.52
2017-12-22T02:55:09.964Z,91.52
2017-12-22T02:56:09.964Z,91.99
2017-12-22T02:57:09.955Z,91.52
2017-12-22T02:58:09.948Z,91.42
2017-12-22T02:59:09.946Z,91.52
2017-12-22T03:00:09.942Z,91.04
2017-12-22T03:01:09.935Z,91.23
2017-12-22T03:02:09.936Z,91.23
2017-12-22T03:03:09.926Z,91.23
2017-12-22T03:04:09.938Z,91.33
2017-12-22T03:05:09.921Z,91.52
2017-12-22T03:06:09.911Z,91.23
2017-12-22T03:07:09.905Z,92.37
2017-12-22T03:08:09.910Z,91.52
2017-12-22T03:09:09.896Z,91.42
2017-12-22T03:10:09.891Z,91.33
2017-12-22T03:11:09.887Z,91.42
2017-12-22T03:12:09.882Z,91.42
2017-12-22T03:13:09.878Z,91.61
2017-12-22T03:14:09.872Z,91.99
2017-12-22T03:15:09.869Z,91.61
2017-12-22T03:16:09.863Z,91.71
2017-12-22T03:17:09.859Z,91.61
2017-12-22T03:18:09.852Z,91.33
2017-12-22T03:19:09.848Z,91.52
2017-12-22T03:20:09.845Z,91.42
2017-12-22T03:21:09.842Z,91.33
2017-12-22T03:22:09.833Z,91.61
2017-12-22T03:23:09.830Z,92.08
2017-12-22T03:24:09.823Z,91.42
2017-12-22T03:25:09.820Z,91.04
2017-12-22T03:26:10.342Z,91.33
2017-12-22T03:27:11.514Z,91.33
2017-12-22T03:28:09.813Z,91.52
2017-12-22T03:29:09.800Z,91.42
2017-12-22T03:30:09.800Z,91.33
2017-12-22T03:31:09.791Z,91.61
2017-12-22T03:32:09.785Z,91.23
2017-12-22T03:33:09.781Z,91.23
2017-12-22T03:34:09.777Z,91.33
2017-12-22T03:35:09.770Z,91.42
2017-12-22T03:36:09.764Z,91.52
2017-12-22T03:37:09.760Z,91.33
2017-12-22T03:38:09.755Z,91.04
2017-12-22T03:39:09.756Z,91.42
2017-12-22T03:40:09.745Z,91.33
2017-12-22T03:41:09.741Z,91.42
2017-12-22T03:42:09.735Z,91.23
2017-12-22T03:43:09.732Z,91.61
2017-12-22T03:44:09.725Z,91.23
2017-12-22T03:45:09.721Z,91.33
2017-12-22T03:46:09.713Z,91.13
2017-12-22T03:47:09.710Z,91.61
2017-12-22T03:48:09.704Z,91.80
2017-12-22T03:49:09.705Z,91.23
2017-12-22T03:50:09.693Z,91.23
2017-12-22T03:51:09.694Z,91.23
2017-12-22T03:52:09.686Z,91.13
2017-12-22T03:53:09.678Z,91.61
2017-12-22T03:54:09.674Z,91.19
2017-12-22T03:55:09.670Z,91.13
2017-12-22T03:56:09.665Z,91.33
2017-12-22T03:57:09.661Z,91.33
2017-12-22T03:58:09.653Z,91.38
2017-12-22T03:59:09.648Z,91.28
2017-12-22T04:00:09.645Z,92.23
2017-12-22T04:01:09.643Z,91.85
2017-12-22T04:02:09.632Z,92.23
2017-12-22T04:03:09.626Z,91.94
2017-12-22T04:04:09.622Z,92.13
2017-12-22T04:05:09.617Z,92.04
2017-12-22T04:06:09.614Z,91.75
2017-12-22T04:07:09.606Z,91.85
2017-12-22T04:08:09.603Z,92.04
2017-12-22T04:09:09.596Z,91.85
2017-12-22T04:10:09.589Z,92.13
2017-12-22T04:11:09.584Z,92.04
2017-12-22T04:12:09.580Z,91.94
2017-12-22T04:13:09.574Z,91.94
2017-12-22T04:14:09.567Z,91.56
2017-12-22T04:15:09.563Z,91.19
2017-12-22T04:16:09.562Z,91.47
2017-12-22T04:17:09.551Z,91.28
2017-12-22T04:18:37.089Z,91.19
2017-12-22T04:19:09.543Z,90.99
2017-12-22T04:20:09.541Z,91.19
2017-12-22T04:21:09.533Z,91.28
2017-12-22T04:22:09.779Z,91.38
2017-12-22T04:23:11.013Z,91.38
2017-12-22T04:24:10.543Z,90.80
2017-12-22T04:25:11.103Z,91.66
2017-12-22T04:26:10.514Z,91.23
2017-12-22T04:27:10.552Z,91.19
2017-12-22T04:28:09.559Z,91.56
2017-12-22T04:29:09.510Z,91.19
2017-12-22T04:30:10.085Z,91.47
2017-12-22T04:31:09.571Z,90.99
2017-12-22T04:32:09.528Z,91.09
2017-12-22T04:33:09.635Z,91.19
2017-12-22T04:34:09.627Z,91.19
2017-12-22T04:35:09.649Z,91.47
2017-12-22T04:36:09.549Z,91.56
2017-12-22T04:37:10.074Z,90.99
2017-12-22T04:38:10.102Z,91.28
2017-12-22T04:39:10.017Z,90.42
2017-12-22T04:40:09.432Z,90.42
2017-12-22T04:41:09.426Z,90.99
2017-12-22T04:42:09.420Z,90.99
2017-12-22T04:43:09.420Z,90.66
2017-12-22T04:44:10.020Z,91.52
2017-12-22T04:45:09.403Z,90.66
2017-12-22T04:46:09.403Z,90.85
2017-12-22T04:47:09.395Z,90.56
2017-12-22T04:48:09.389Z,90.37
2017-12-22T04:49:09.384Z,90.37
2017-12-22T04:50:09.380Z,90.09
2017-12-22T04:51:09.374Z,90.28
2017-12-22T04:52:09.369Z,89.90
2017-12-22T04:53:09.366Z,90.52
2017-12-22T04:54:09.359Z,90.09
2017-12-22T04:55:09.355Z,90.66
2017-12-22T04:56:09.349Z,90.28
2017-12-22T04:57:09.344Z,90.19
2017-12-22T04:58:09.339Z,90.28
2017-12-22T04:59:09.335Z,90.19
2017-12-22T05:00:09.331Z,90.09
2017-12-22T05:01:09.328Z,90.28
2017-12-22T05:02:09.320Z,89.80
2017-12-22T05:03:09.314Z,90.28
2017-12-22T05:04:09.309Z,89.80
2017-12-22T05:05:09.306Z,90.37
2017-12-22T05:06:09.298Z,90.19
2017-12-22T05:07:09.293Z,90.37
2017-12-22T05:08:09.289Z,90.61
2017-12-22T05:09:09.286Z,90.42
2017-12-22T05:10:09.278Z,90.14
2017-12-22T05:11:09.272Z,90.37
2017-12-22T05:12:09.267Z,90.75
2017-12-22T05:13:09.264Z,90.37
2017-12-22T05:14:09.259Z,90.28
2017-12-22T05:15:09.253Z,90.09
2017-12-22T05:16:09.249Z,90.47
2017-12-22T05:17:09.244Z,90.28
2017-12-22T05:18:09.273Z,90.28
2017-12-22T05:19:09.236Z,90.28
2017-12-22T05:20:09.228Z,90.52
2017-12-22T05:21:09.222Z,90.19
2017-12-22T05:22:09.218Z,90.37
2017-12-22T05:23:09.214Z,91.13
2017-12-22T05:24:09.209Z,90.19
2017-12-22T05:25:09.202Z,90.09
2017-12-22T05:26:09.199Z,90.52
2017-12-22T05:27:09.194Z,90.56
2017-12-22T05:28:09.198Z,90.85
2017-12-22T05:29:09.186Z,90.80
2017-12-22T05:30:09.178Z,91.28
2017-12-22T05:31:09.173Z,90.61
2017-12-22T05:32:09.178Z,90.80
2017-12-22T05:33:09.163Z,90.66
2017-12-22T05:34:09.159Z,90.80
2017-12-22T05:35:09.153Z,90.52
2017-12-22T05:36:09.148Z,91.28
2017-12-22T05:37:09.325Z,90.85
2017-12-22T05:38:09.139Z,91.61
2017-12-22T05:39:09.135Z,90.66
2017-12-22T05:40:09.130Z,91.33
2017-12-22T05:41:09.127Z,90.37
2017-12-22T05:42:09.118Z,90.47
2017-12-22T05:43:09.112Z,90.37
2017-12-22T05:44:09.108Z,90.47
2017-12-22T05:45:09.107Z,90.37
2017-12-22T05:46:09.112Z,90.37
2017-12-22T05:47:09.092Z,90.37
2017-12-22T05:48:09.091Z,90.94
2017-12-22T05:49:09.084Z,90.66
2017-12-22T05:50:09.078Z,90.66
2017-12-22T05:51:09.074Z,90.19
2017-12-22T05:52:09.069Z,90.37
2017-12-22T05:53:09.066Z,90.66
2017-12-22T05:54:09.060Z,90.28
2017-12-22T05:55:09.056Z,90.94
2017-12-22T05:56:09.050Z,90.28
2017-12-22T05:57:09.054Z,90.09
2017-12-22T05:58:09.047Z,90.19
2017-12-22T05:59:09.037Z,90.75
2017-12-22T06:00:09.031Z,90.37
2017-12-22T06:01:09.026Z,90.09
2017-12-22T06:02:09.021Z,90.37
2017-12-22T06:03:09.018Z,90.47
2017-12-22T06:04:09.012Z,90.37
2017-12-22T06:05:09.005Z,90.09
2017-12-22T06:06:09.017Z,90.00
2017-12-22T06:07:09.001Z,89.90
2017-12-22T06:08:08.993Z,89.61
2017-12-22T06:09:08.989Z,90.47
2017-12-22T06:10:08.982Z,90.28
2017-12-22T06:11:08.979Z,90.19
2017-12-22T06:12:08.974Z,90.56
2017-12-22T06:13:08.968Z,90.19
2017-12-22T06:14:08.961Z,89.52
2017-12-22T06:15:08.965Z,90.09
2017-12-22T06:16:08.959Z,90.19
2017-12-22T06:17:08.952Z,90.00
2017-12-22T06:18:08.948Z,90.56
2017-12-22T06:19:08.941Z,90.19
2017-12-22T06:20:08.936Z,90.28
2017-12-22T06:21:08.929Z,90.37
2017-12-22T06:22:08.925Z,90.28
2017-12-22T06:23:08.920Z,90.37
2017-12-22T06:24:08.916Z,90.28
2017-12-22T06:25:08.913Z,89.80
2017-12-22T06:26:08.912Z,90.56
2017-12-22T06:27:08.904Z,90.85
2017-12-22T06:28:08.939Z,90.19
2017-12-22T06:29:08.893Z,90.19
2017-12-22T06:30:08.887Z,90.00
2017-12-22T06:31:08.882Z,90.47
2017-12-22T06:32:08.885Z,90.47
2017-12-22T06:33:08.874Z,89.90
2017-12-22T06:34:08.872Z,90.00
2017-12-22T06:35:08.865Z,89.80
2017-12-22T06:36:08.862Z,90.00
2017-12-22T06:37:08.858Z,90.19
2017-12-22T06:38:08.853Z,90.19
2017-12-22T06:39:08.851Z,89.61
2017-12-22T06:40:08.843Z,89.80
2017-12-22T06:41:08.838Z,90.09
2017-12-22T06:42:08.834Z,89.61
2017-12-22T06:43:08.829Z,89.90
2017-12-22T06:44:08.825Z,89.90
2017-12-22T06:45:08.820Z,90.09
2017-12-22T06:46:08.815Z,89.80
2017-12-22T06:47:08.813Z,90.28
2017-12-22T06:48:08.808Z,89.71
2017-12-22T06:49:08.803Z,89.90
2017-12-22T06:50:08.800Z,89.90
2017-12-22T06:51:08.794Z,90.19
2017-12-22T06:52:08.793Z,89.80
2017-12-22T06:53:08.783Z,90.19
2017-12-22T06:54:08.779Z,90.00
2017-12-22T06:55:08.777Z,90.00
2017-12-22T06:56:08.768Z,90.47
2017-12-22T06:57:08.765Z,90.00
2017-12-22T06:58:08.762Z,90.37
2017-12-22T06:59:08.757Z,90.19
2017-12-22T07:00:08.753Z,90.09
2017-12-22T07:01:08.750Z,89.90
2017-12-22T07:02:08.744Z,89.90
2017-12-22T07:03:08.739Z,90.19
2017-12-22T07:04:08.735Z,89.80
2017-12-22T07:05:08.731Z,90.00
2017-12-22T07:06:08.723Z,90.00
2017-12-22T07:07:08.731Z,90.09
2017-12-22T07:08:08.715Z,89.80
2017-12-22T07:09:08.711Z,89.90
2017-12-22T07:10:08.706Z,89.61
2017-12-22T07:11:08.705Z,89.71
2017-12-22T07:12:08.699Z,89.61
2017-12-22T07:13:08.695Z,90.19
2017-12-22T07:14:08.689Z,90.19
2017-12-22T07:15:08.684Z,90.00
2017-12-22T07:16:08.682Z,89.33
2017-12-22T07:17:08.676Z,89.80
2017-12-22T07:18:08.670Z,89.80
2017-12-22T07:19:08.666Z,89.61
2017-12-22T07:20:08.662Z,89.71
2017-12-22T07:21:08.658Z,89.90
2017-12-22T07:22:08.654Z,89.80
2017-12-22T07:23:08.650Z,90.09
2017-12-22T07:24:08.642Z,90.00
2017-12-22T07:25:08.640Z,89.90
2017-12-22T07:26:08.638Z,89.61
2017-12-22T07:27:08.628Z,89.90
2017-12-22T07:28:08.625Z,89.90
2017-12-22T07:29:08.620Z,90.19
2017-12-22T07:30:08.617Z,90.09
2017-12-22T07:31:08.612Z,89.71
2017-12-22T07:32:08.623Z,89.61
2017-12-22T07:33:08.603Z,89.80
2017-12-22T07:34:08.596Z,89.71
2017-12-22T07:35:08.593Z,90.09
2017-12-22T07:36:08.591Z,89.71
2017-12-22T07:37:08.584Z,89.80
2017-12-22T07:38:08.580Z,89.42
2017-12-22T07:39:08.574Z,89.80
2017-12-22T07:40:08.572Z,89.90
2017-12-22T07:41:08.566Z,89.61
2017-12-22T07:42:08.574Z,89.71
2017-12-22T07:43:08.567Z,89.71
2017-12-22T07:44:08.611Z,89.61
2017-12-22T07:45:08.560Z,89.42
2017-12-22T07:46:08.572Z,89.80
2017-12-22T07:47:08.538Z,90.00
2017-12-22T07:48:08.534Z,90.00
2017-12-22T07:49:08.531Z,90.37
2017-12-22T07:50:08.525Z,90.19
2017-12-22T07:51:08.519Z,89.61
2017-12-22T07:52:08.514Z,90.00
2017-12-22T07:53:08.515Z,89.61
2017-12-22T07:54:08.507Z,89.71
2017-12-22T07:55:08.567Z,89.80
2017-12-22T07:56:08.500Z,90.19
2017-12-22T07:57:08.494Z,89.80
2017-12-22T07:58:08.487Z,90.19
2017-12-22T07:59:08.486Z,89.71
2017-12-22T08:00:08.479Z,89.80
2017-12-22T08:01:08.476Z,89.71
2017-12-22T08:02:08.481Z,89.80
2017-12-22T08:03:08.473Z,89.90
2017-12-22T08:04:08.462Z,89.90
2017-12-22T08:05:08.859Z,90.19
2017-12-22T08:06:09.609Z,89.90
2017-12-22T08:07:09.111Z,89.80
2017-12-22T08:08:08.445Z,90.00
2017-12-22T08:09:08.439Z,89.61
2017-12-22T08:10:08.444Z,89.90
2017-12-22T08:11:08.435Z,89.90
2017-12-22T08:12:08.437Z,89.90
2017-12-22T08:13:08.428Z,89.33
2017-12-22T08:14:08.418Z,89.90
2017-12-22T08:15:08.412Z,90.09
2017-12-22T08:16:08.407Z,90.09
2017-12-22T08:17:08.427Z,90.00
2017-12-22T08:18:08.396Z,90.00
2017-12-22T08:19:08.393Z,89.90
2017-12-22T08:20:08.393Z,89.80
2017-12-22T08:21:08.386Z,89.23
2017-12-22T08:22:08.400Z,90.09
2017-12-22T08:23:08.375Z,89.80
2017-12-22T08:24:08.378Z,90.19
2017-12-22T08:25:08.364Z,89.90
2017-12-22T08:26:08.361Z,90.00
2017-12-22T08:27:08.355Z,89.80
2017-12-22T08:28:08.353Z,90.00
2017-12-22T08:29:08.351Z,89.90
2017-12-22T08:30:08.342Z,89.52
2017-12-22T08:31:08.338Z,90.19
2017-12-22T08:32:08.339Z,90.09
2017-12-22T08:33:08.341Z,90.00
2017-12-22T08:34:08.326Z,90.19
2017-12-22T08:35:08.322Z,90.19
2017-12-22T08:36:08.319Z,90.37
2017-12-22T08:37:08.312Z,90.47
2017-12-22T08:38:08.320Z,90.00
2017-12-22T08:39:08.302Z,90.09
2017-12-22T08:40:08.298Z,89.52
2017-12-22T08:41:08.298Z,90.19
2017-12-22T08:42:08.292Z,90.56
2017-12-22T08:43:08.284Z,90.09
2017-12-22T08:44:08.284Z,90.47
2017-12-22T08:45:08.277Z,90.56
2017-12-22T08:46:08.271Z,90.37
2017-12-22T08:47:08.267Z,90.00
2017-12-22T08:48:08.262Z,90.28
2017-12-22T08:49:08.257Z,89.85
2017-12-22T08:50:08.251Z,90.52
2017-12-22T08:51:08.249Z,90.61
2017-12-22T08:52:08.243Z,89.80
2017-12-22T08:53:08.238Z,89.47
2017-12-22T08:54:08.254Z,89.85
2017-12-22T08:55:08.263Z,89.94
2017-12-22T08:56:08.226Z,89.47
2017-12-22T08:57:08.222Z,89.85
2017-12-22T08:58:08.219Z,89.47
2017-12-22T08:59:08.214Z,90.14
2017-12-22T09:00:08.232Z,90.04
2017-12-22T09:01:08.244Z,90.23
2017-12-22T09:02:08.201Z,89.75
2017-12-22T09:03:08.196Z,90.14
2017-12-22T09:04:08.189Z,90.04
2017-12-22T09:05:08.192Z,90.23
2017-12-22T09:06:08.182Z,90.52
2017-12-22T09:07:08.178Z,89.94
2017-12-22T09:08:08.176Z,89.85
2017-12-22T09:09:08.173Z,90.23
2017-12-22T09:10:08.165Z,90.04
2017-12-22T09:11:08.162Z,90.14
2017-12-22T09:12:08.162Z,90.33
2017-12-22T09:13:08.154Z,90.14
2017-12-22T09:14:08.152Z,90.33
2017-12-22T09:15:08.146Z,89.37
2017-12-22T09:16:08.142Z,89.75
2017-12-22T09:17:08.138Z,90.04
2017-12-22T09:18:08.133Z,89.85
2017-12-22T09:19:08.160Z,89.18
2017-12-22T09:20:08.125Z,89.09
2017-12-22T09:21:08.137Z,88.90
2017-12-22T09:22:08.120Z,89.47
2017-12-22T09:23:08.111Z,89.66
2017-12-22T09:24:08.106Z,89.47
2017-12-22T09:25:08.108Z,89.66
2017-12-22T09:26:08.100Z,89.47
2017-12-22T09:27:08.098Z,89.66
2017-12-22T09:28:08.110Z,89.75
2017-12-22T09:29:08.089Z,89.18
2017-12-22T09:30:08.106Z,89.18
2017-12-22T09:31:08.083Z,89.56
2017-12-22T09:32:08.077Z,89.47
2017-12-22T09:33:08.072Z,89.18
2017-12-22T09:34:08.071Z,89.18
2017-12-22T09:35:08.062Z,89.28
2017-12-22T09:36:08.060Z,89.47
2017-12-22T09:37:08.055Z,89.85
2017-12-22T09:38:08.051Z,89.66
2017-12-22T09:39:08.052Z,89.56
2017-12-22T09:40:08.042Z,89.85
2017-12-22T09:41:08.042Z,90.04
2017-12-22T09:42:08.033Z,89.37
2017-12-22T09:43:08.029Z,88.61
2017-12-22T09:44:08.027Z,89.47
2017-12-22T09:45:08.023Z,89.00
2017-12-22T09:46:08.016Z,88.80
2017-12-22T09:47:08.015Z,88.80
2017-12-22T09:48:08.017Z,89.56
2017-12-22T09:49:08.011Z,90.23
2017-12-22T09:50:08.002Z,89.85
2017-12-22T09:51:07.995Z,89.00
2017-12-22T09:52:07.994Z,88.90
2017-12-22T09:53:07.991Z,89.18
2017-12-22T09:54:07.983Z,88.80
2017-12-22T09:55:07.983Z,89.28
2017-12-22T09:56:07.979Z,89.00
2017-12-22T09:57:07.988Z,89.09
2017-12-22T09:58:07.967Z,88.90
2017-12-22T09:59:07.968Z,88.80
2017-12-22T10:00:07.960Z,88.80
2017-12-22T10:01:07.957Z,89.00
2017-12-22T10:02:07.960Z,89.00
2017-12-22T10:03:07.952Z,89.28
2017-12-22T10:04:07.946Z,89.18
2017-12-22T10:05:07.942Z,89.18
2017-12-22T10:06:07.934Z,89.85
2017-12-22T10:07:07.951Z,90.08
2017-12-22T10:08:07.930Z,89.00
2017-12-22T10:09:07.924Z,89.23
2017-12-22T10:10:08.014Z,89.70
2017-12-22T10:11:07.917Z,89.42
2017-12-22T10:12:07.912Z,89.51
2017-12-22T10:13:07.912Z,89.32
2017-12-22T10:14:07.903Z,88.75
2017-12-22T10:15:07.901Z,89.14
2017-12-22T10:16:07.901Z,89.32
2017-12-22T10:17:07.895Z,88.94
2017-12-22T10:18:07.890Z,88.85
2017-12-22T10:19:07.886Z,88.66
2017-12-22T10:20:07.881Z,88.09
2017-12-22T10:21:07.899Z,88.18
2017-12-22T10:22:07.872Z,88.37
2017-12-22T10:23:07.879Z,88.18
2017-12-22T10:24:07.865Z,87.90
2017-12-22T10:25:07.863Z,88.56
2017-12-22T10:26:07.860Z,88.66
2017-12-22T10:27:07.858Z,89.04
2017-12-22T10:28:07.851Z,88.66
2017-12-22T10:29:07.850Z,88.94
2017-12-22T10:30:07.844Z,88.94
2017-12-22T10:31:07.842Z,88.46
2017-12-22T10:32:07.837Z,88.56
2017-12-22T10:33:07.833Z,88.60
2017-12-22T10:34:07.842Z,88.51
2017-12-22T10:35:07.827Z,88.18
2017-12-22T10:36:07.821Z,88.89
2017-12-22T10:37:07.820Z,88.51
2017-12-22T10:38:07.815Z,88.23
2017-12-22T10:39:07.816Z,88.89
2017-12-22T10:40:07.810Z,88.89
2017-12-22T10:41:07.807Z,88.32
2017-12-22T10:42:07.818Z,88.32
2017-12-22T10:43:07.800Z,88.04
2017-12-22T10:44:07.797Z,87.46
2017-12-22T10:45:07.791Z,87.75
2017-12-22T10:46:07.788Z,87.94
2017-12-22T10:47:07.785Z,87.65
2017-12-22T10:48:07.791Z,87.75
2017-12-22T10:49:07.780Z,87.65
2017-12-22T10:50:07.773Z,87.75
2017-12-22T10:51:07.773Z,87.37
2017-12-22T10:52:07.773Z,87.18
2017-12-22T10:53:07.766Z,87.46
2017-12-22T10:54:07.762Z,87.75
2017-12-22T10:55:07.762Z,87.75
2017-12-22T10:56:07.764Z,86.99
2017-12-22T10:57:07.750Z,86.75
2017-12-22T10:58:07.749Z,86.55
2017-12-22T10:59:07.748Z,86.46
2017-12-22T11:00:07.762Z,86.46
2017-12-22T11:01:07.739Z,85.89
2017-12-22T11:02:07.737Z,85.60
2017-12-22T11:03:07.740Z,85.70
2017-12-22T11:04:07.736Z,85.80
2017-12-22T11:05:07.728Z,85.22
2017-12-22T11:06:07.726Z,84.56
2017-12-22T11:07:07.723Z,84.56
2017-12-22T11:08:07.718Z,84.94
2017-12-22T11:09:07.715Z,85.32
2017-12-22T11:10:07.711Z,85.03
2017-12-22T11:11:07.708Z,85.22
2017-12-22T11:12:07.707Z,84.84
2017-12-22T11:13:07.706Z,84.65
2017-12-22T11:14:07.701Z,84.65
2017-12-22T11:15:07.733Z,85.13
2017-12-22T11:16:07.697Z,84.84
2017-12-22T11:17:07.701Z,85.13
2017-12-22T11:18:07.689Z,84.84
2017-12-22T11:19:07.689Z,84.65
2017-12-22T11:20:07.683Z,84.17
2017-12-22T11:21:07.682Z,84.75
2017-12-22T11:22:07.690Z,84.27
2017-12-22T11:23:07.676Z,84.46
2017-12-22T11:24:07.674Z,83.89
2017-12-22T11:25:07.671Z,83.80
2017-12-22T11:26:07.678Z,84.17
2017-12-22T11:27:07.663Z,83.80
2017-12-22T11:28:07.668Z,83.80
2017-12-22T11:29:07.660Z,84.08
2017-12-22T11:30:07.656Z,84.84
2017-12-22T11:31:07.658Z,84.46
2017-12-22T11:32:07.651Z,84.08
2017-12-22T11:33:07.650Z,83.70
2017-12-22T11:34:07.651Z,84.08
2017-12-22T11:35:07.642Z,85.13
2017-12-22T11:36:07.643Z,84.65
2017-12-22T11:37:07.640Z,84.08
2017-12-22T11:38:07.633Z,84.17
2017-12-22T11:39:07.641Z,84.84
2017-12-22T11:40:07.637Z,83.70
2017-12-22T11:41:07.626Z,83.70
2017-12-22T11:42:07.636Z,83.98
2017-12-22T11:43:07.626Z,83.89
2017-12-22T11:44:07.616Z,84.08
2017-12-22T11:45:07.639Z,84.17
2017-12-22T11:46:07.611Z,83.51
2017-12-22T11:47:07.609Z,83.89
2017-12-22T11:48:07.608Z,83.89
2017-12-22T11:49:07.604Z,83.89
2017-12-22T11:50:07.600Z,83.70
2017-12-22T11:51:07.600Z,83.65
2017-12-22T11:52:07.594Z,83.85
2017-12-22T11:53:07.593Z,84.33
2017-12-22T11:54:07.615Z,84.70
2017-12-22T11:55:07.587Z,84.42
2017-12-22T11:56:07.584Z,84.80
2017-12-22T11:57:07.582Z,84.33
2017-12-22T11:58:07.577Z,84.99
2017-12-22T11:59:07.575Z,85.18
2017-12-22T12:00:07.576Z,84.33
2017-12-22T12:01:07.578Z,84.80
2017-12-22T12:02:07.567Z,84.89
2017-12-22T12:03:07.567Z,84.61
2017-12-22T12:04:07.558Z,84.70
2017-12-22T12:05:07.603Z,84.70
2017-12-22T12:06:07.603Z,84.52
2017-12-22T12:07:07.549Z,84.52
2017-12-22T12:08:07.549Z,84.80
2017-12-22T12:09:07.543Z,84.04
2017-12-22T12:10:07.544Z,84.70
2017-12-22T12:11:07.546Z,84.04
2017-12-22T12:12:07.532Z,84.04
2017-12-22T12:13:07.532Z,84.42
2017-12-22T12:14:07.527Z,84.23
2017-12-22T12:15:07.523Z,84.23
2017-12-22T12:16:07.520Z,84.23
2017-12-22T12:17:07.518Z,84.33
2017-12-22T12:18:07.516Z,84.42
2017-12-22T12:19:07.601Z,84.42
2017-12-22T12:20:07.513Z,84.42
2017-12-22T12:21:07.506Z,84.13
2017-12-22T12:22:07.500Z,84.33
2017-12-22T12:23:07.501Z,84.13
2017-12-22T12:24:07.494Z,84.23
2017-12-22T12:25:07.495Z,84.13
2017-12-22T12:26:07.501Z,84.52
2017-12-22T12:27:07.484Z,84.52
2017-12-22T12:28:07.480Z,84.52
2017-12-22T12:29:07.477Z,83.85
2017-12-22T12:30:07.474Z,84.23
2017-12-22T12:31:07.472Z,83.94
2017-12-22T12:32:07.468Z,83.65
2017-12-22T12:33:07.462Z,83.94
2017-12-22T12:34:07.460Z,83.75
2017-12-22T12:35:07.455Z,84.42
2017-12-22T12:36:07.452Z,84.13
2017-12-22T12:37:07.448Z,83.94
2017-12-22T12:38:07.445Z,84.13
2017-12-22T12:39:07.443Z,83.85
2017-12-22T12:40:07.441Z,84.70
2017-12-22T12:41:07.434Z,84.89
2017-12-22T12:42:07.430Z,85.75
2017-12-22T12:43:07.429Z,85.08
2017-12-22T12:44:07.426Z,84.33
2017-12-22T12:45:07.421Z,84.42
2017-12-22T12:46:07.418Z,84.42
2017-12-22T12:47:07.414Z,83.85
2017-12-22T12:48:07.409Z,83.51
2017-12-22T12:49:07.434Z,84.04
2017-12-22T12:50:07.403Z,83.65
2017-12-22T12:51:07.400Z,83.47
2017-12-22T12:52:07.396Z,83.41